sensor_id;sensor_type;location;lat;lon;timestamp;P1;durP1;ratioP1;P2;durP2;ratioP2
20721;SDS011;10522;52.198;9.890;2022-08-19T00:00:25;11.97;;;7.43;;
20721;SDS011;10522;52.198;9.890;2022-08-19T00:02:52;10.43;;;7.93;;
20721;SDS011;10522;52.198;9.890;2022-08-19T00:05:18;12.00;;;8.37;;
20721;SDS011;10522;52.198;9.890;2022-08-19T00:07:45;10.47;;;7.83;;
20721;SDS011;10522;52.198;9.890;2022-08-19T00:10:13;9.73;;;7.47;;
20721;SDS011;10522;52.198;9.890;2022-08-19T00:12:40;16.90;;;8.50;;
20721;SDS011;10522;52.198;9.890;2022-08-19T00:15:07;12.20;;;8.40;;
20721;SDS011;10522;52.198;9.890;2022-08-19T00:17:36;15.47;;;8.37;;
20721;SDS011;10522;52.198;9.890;2022-08-19T00:20:03;8.83;;;7.17;;
20721;SDS011;10522;52.198;9.890;2022-08-19T00:22:30;13.37;;;7.90;;
20721;SDS011;10522;52.198;9.890;2022-08-19T00:24:56;13.70;;;8.40;;
20721;SDS011;10522;52.198;9.890;2022-08-19T00:27:21;11.63;;;7.17;;
20721;SDS011;10522;52.198;9.890;2022-08-19T00:29:47;12.17;;;7.43;;
20721;SDS011;10522;52.198;9.890;2022-08-19T00:32:12;13.27;;;8.83;;
20721;SDS011;10522;52.198;9.890;2022-08-19T00:34:38;15.53;;;8.30;;
20721;SDS011;10522;52.198;9.890;2022-08-19T00:37:03;16.00;;;8.00;;
20721;SDS011;10522;52.198;9.890;2022-08-19T00:39:29;10.97;;;7.77;;
20721;SDS011;10522;52.198;9.890;2022-08-19T00:41:55;13.90;;;8.73;;
20721;SDS011;10522;52.198;9.890;2022-08-19T00:44:23;12.43;;;7.67;;
20721;SDS011;10522;52.198;9.890;2022-08-19T00:46:53;12.30;;;7.83;;
20721;SDS011;10522;52.198;9.890;2022-08-19T00:52:04;14.83;;;8.27;;
20721;SDS011;10522;52.198;9.890;2022-08-19T00:54:38;10.77;;;7.50;;
20721;SDS011;10522;52.198;9.890;2022-08-19T00:57:05;12.97;;;7.83;;
20721;SDS011;10522;52.198;9.890;2022-08-19T00:59:36;14.07;;;8.20;;
20721;SDS011;10522;52.198;9.890;2022-08-19T01:02:04;12.77;;;7.50;;
20721;SDS011;10522;52.198;9.890;2022-08-19T01:04:30;15.20;;;8.90;;
20721;SDS011;10522;52.198;9.890;2022-08-19T01:06:56;15.03;;;8.90;;
20721;SDS011;10522;52.198;9.890;2022-08-19T01:09:22;15.33;;;7.90;;
20721;SDS011;10522;52.198;9.890;2022-08-19T01:11:48;9.43;;;7.53;;
20721;SDS011;10522;52.198;9.890;2022-08-19T01:14:14;13.40;;;8.10;;
20721;SDS011;10522;52.198;9.890;2022-08-19T01:16:41;10.00;;;7.27;;
20721;SDS011;10522;52.198;9.890;2022-08-19T01:19:43;10.63;;;7.50;;
20721;SDS011;10522;52.198;9.890;2022-08-19T01:22:25;13.90;;;7.43;;
20721;SDS011;10522;52.198;9.890;2022-08-19T01:24:55;12.40;;;7.73;;
20721;SDS011;10522;52.198;9.890;2022-08-19T01:27:21;13.97;;;8.37;;
20721;SDS011;10522;52.198;9.890;2022-08-19T01:29:47;13.10;;;7.80;;
20721;SDS011;10522;52.198;9.890;2022-08-19T01:32:13;16.40;;;9.10;;
20721;SDS011;10522;52.198;9.890;2022-08-19T01:34:41;12.20;;;8.30;;
20721;SDS011;10522;52.198;9.890;2022-08-19T01:37:08;15.20;;;8.57;;
20721;SDS011;10522;52.198;9.890;2022-08-19T01:39:36;12.07;;;8.33;;
20721;SDS011;10522;52.198;9.890;2022-08-19T01:42:04;13.23;;;8.47;;
20721;SDS011;10522;52.198;9.890;2022-08-19T01:44:32;12.27;;;8.77;;
20721;SDS011;10522;52.198;9.890;2022-08-19T01:46:58;15.07;;;8.33;;
20721;SDS011;10522;52.198;9.890;2022-08-19T01:49:24;16.20;;;8.00;;
20721;SDS011;10522;52.198;9.890;2022-08-19T01:51:51;14.03;;;8.30;;
20721;SDS011;10522;52.198;9.890;2022-08-19T01:54:19;14.53;;;8.60;;
20721;SDS011;10522;52.198;9.890;2022-08-19T01:56:48;13.60;;;8.60;;
20721;SDS011;10522;52.198;9.890;2022-08-19T01:59:16;15.80;;;8.57;;
20721;SDS011;10522;52.198;9.890;2022-08-19T02:01:43;17.17;;;8.77;;
20721;SDS011;10522;52.198;9.890;2022-08-19T02:04:09;14.90;;;7.80;;
20721;SDS011;10522;52.198;9.890;2022-08-19T02:06:35;13.00;;;7.87;;
20721;SDS011;10522;52.198;9.890;2022-08-19T02:09:03;14.90;;;8.30;;
20721;SDS011;10522;52.198;9.890;2022-08-19T02:11:31;12.20;;;7.93;;
20721;SDS011;10522;52.198;9.890;2022-08-19T02:13:59;12.23;;;7.80;;
20721;SDS011;10522;52.198;9.890;2022-08-19T02:16:27;12.33;;;7.63;;
20721;SDS011;10522;52.198;9.890;2022-08-19T02:18:52;14.77;;;8.17;;
20721;SDS011;10522;52.198;9.890;2022-08-19T02:21:19;14.50;;;8.40;;
20721;SDS011;10522;52.198;9.890;2022-08-19T02:23:46;14.60;;;8.10;;
20721;SDS011;10522;52.198;9.890;2022-08-19T02:26:12;12.80;;;8.87;;
20721;SDS011;10522;52.198;9.890;2022-08-19T02:28:38;13.87;;;7.90;;
20721;SDS011;10522;52.198;9.890;2022-08-19T02:31:08;12.90;;;8.23;;
20721;SDS011;10522;52.198;9.890;2022-08-19T02:33:36;14.67;;;8.77;;
20721;SDS011;10522;52.198;9.890;2022-08-19T02:36:03;13.70;;;8.53;;
20721;SDS011;10522;52.198;9.890;2022-08-19T02:38:30;12.37;;;8.27;;
20721;SDS011;10522;52.198;9.890;2022-08-19T02:41:00;18.00;;;9.77;;
20721;SDS011;10522;52.198;9.890;2022-08-19T02:43:28;12.87;;;8.03;;
20721;SDS011;10522;52.198;9.890;2022-08-19T02:45:56;12.20;;;8.23;;
20721;SDS011;10522;52.198;9.890;2022-08-19T02:48:22;12.60;;;8.23;;
20721;SDS011;10522;52.198;9.890;2022-08-19T02:50:50;15.40;;;9.13;;
20721;SDS011;10522;52.198;9.890;2022-08-19T02:53:24;15.47;;;7.93;;
20721;SDS011;10522;52.198;9.890;2022-08-19T02:55:51;12.87;;;8.23;;
20721;SDS011;10522;52.198;9.890;2022-08-19T02:58:18;12.30;;;8.10;;
20721;SDS011;10522;52.198;9.890;2022-08-19T03:00:49;12.90;;;8.20;;
20721;SDS011;10522;52.198;9.890;2022-08-19T03:03:17;16.37;;;8.53;;
20721;SDS011;10522;52.198;9.890;2022-08-19T03:05:44;13.63;;;8.73;;
20721;SDS011;10522;52.198;9.890;2022-08-19T03:08:10;11.67;;;8.70;;
20721;SDS011;10522;52.198;9.890;2022-08-19T03:10:45;14.43;;;8.83;;
20721;SDS011;10522;52.198;9.890;2022-08-19T03:13:13;16.73;;;10.20;;
20721;SDS011;10522;52.198;9.890;2022-08-19T03:15:41;14.50;;;8.57;;
20721;SDS011;10522;52.198;9.890;2022-08-19T03:18:08;14.67;;;8.70;;
20721;SDS011;10522;52.198;9.890;2022-08-19T03:20:39;15.37;;;9.23;;
20721;SDS011;10522;52.198;9.890;2022-08-19T03:23:09;14.43;;;8.37;;
20721;SDS011;10522;52.198;9.890;2022-08-19T03:25:39;17.47;;;9.27;;
20721;SDS011;10522;52.198;9.890;2022-08-19T03:28:07;16.10;;;9.33;;
20721;SDS011;10522;52.198;9.890;2022-08-19T03:30:37;15.90;;;9.33;;
20721;SDS011;10522;52.198;9.890;2022-08-19T03:33:04;15.20;;;9.50;;
20721;SDS011;10522;52.198;9.890;2022-08-19T03:35:30;16.20;;;9.53;;
20721;SDS011;10522;52.198;9.890;2022-08-19T03:37:56;15.73;;;9.33;;
20721;SDS011;10522;52.198;9.890;2022-08-19T03:40:22;16.17;;;9.60;;
20721;SDS011;10522;52.198;9.890;2022-08-19T03:42:48;16.17;;;9.43;;
20721;SDS011;10522;52.198;9.890;2022-08-19T03:45:14;14.73;;;9.13;;
20721;SDS011;10522;52.198;9.890;2022-08-19T03:47:40;13.13;;;8.23;;
20721;SDS011;10522;52.198;9.890;2022-08-19T03:50:06;15.57;;;9.70;;
20721;SDS011;10522;52.198;9.890;2022-08-19T03:52:31;17.27;;;9.63;;
20721;SDS011;10522;52.198;9.890;2022-08-19T03:54:57;13.50;;;9.43;;
20721;SDS011;10522;52.198;9.890;2022-08-19T03:57:22;18.87;;;9.63;;
20721;SDS011;10522;52.198;9.890;2022-08-19T03:59:48;16.47;;;9.70;;
20721;SDS011;10522;52.198;9.890;2022-08-19T04:02:13;18.27;;;9.00;;
20721;SDS011;10522;52.198;9.890;2022-08-19T04:04:40;17.10;;;10.83;;
20721;SDS011;10522;52.198;9.890;2022-08-19T04:07:08;15.50;;;9.37;;
20721;SDS011;10522;52.198;9.890;2022-08-19T04:09:34;17.80;;;10.20;;
20721;SDS011;10522;52.198;9.890;2022-08-19T04:12:01;14.93;;;9.40;;
20721;SDS011;10522;52.198;9.890;2022-08-19T04:14:30;17.43;;;9.20;;
20721;SDS011;10522;52.198;9.890;2022-08-19T04:16:56;16.57;;;10.90;;
20721;SDS011;10522;52.198;9.890;2022-08-19T04:19:23;15.33;;;9.60;;
20721;SDS011;10522;52.198;9.890;2022-08-19T04:21:51;15.20;;;9.23;;
20721;SDS011;10522;52.198;9.890;2022-08-19T04:24:19;16.53;;;9.60;;
20721;SDS011;10522;52.198;9.890;2022-08-19T04:26:46;16.60;;;10.17;;
20721;SDS011;10522;52.198;9.890;2022-08-19T04:29:13;19.57;;;10.30;;
20721;SDS011;10522;52.198;9.890;2022-08-19T04:31:42;15.17;;;9.70;;
20721;SDS011;10522;52.198;9.890;2022-08-19T04:34:10;18.73;;;9.60;;
20721;SDS011;10522;52.198;9.890;2022-08-19T04:36:37;13.57;;;8.80;;
20721;SDS011;10522;52.198;9.890;2022-08-19T04:39:06;17.70;;;9.80;;
20721;SDS011;10522;52.198;9.890;2022-08-19T04:41:34;15.60;;;8.63;;
20721;SDS011;10522;52.198;9.890;2022-08-19T04:44:18;15.70;;;9.40;;
20721;SDS011;10522;52.198;9.890;2022-08-19T04:46:47;16.73;;;9.90;;
20721;SDS011;10522;52.198;9.890;2022-08-19T04:49:14;15.70;;;9.30;;
20721;SDS011;10522;52.198;9.890;2022-08-19T04:51:42;15.83;;;9.37;;
20721;SDS011;10522;52.198;9.890;2022-08-19T04:54:09;13.17;;;8.90;;
20721;SDS011;10522;52.198;9.890;2022-08-19T04:56:35;15.90;;;9.23;;
20721;SDS011;10522;52.198;9.890;2022-08-19T04:59:00;14.57;;;9.20;;
20721;SDS011;10522;52.198;9.890;2022-08-19T05:01:30;15.07;;;8.90;;
20721;SDS011;10522;52.198;9.890;2022-08-19T05:03:58;13.80;;;8.43;;
20721;SDS011;10522;52.198;9.890;2022-08-19T05:06:25;14.33;;;8.10;;
20721;SDS011;10522;52.198;9.890;2022-08-19T05:08:52;12.57;;;8.67;;
20721;SDS011;10522;52.198;9.890;2022-08-19T05:13:47;12.50;;;7.80;;
20721;SDS011;10522;52.198;9.890;2022-08-19T05:16:13;12.67;;;8.07;;
20721;SDS011;10522;52.198;9.890;2022-08-19T05:18:41;14.20;;;7.60;;
20721;SDS011;10522;52.198;9.890;2022-08-19T05:21:26;11.33;;;7.40;;
20721;SDS011;10522;52.198;9.890;2022-08-19T05:24:11;13.27;;;8.20;;
20721;SDS011;10522;52.198;9.890;2022-08-19T05:26:39;13.70;;;8.40;;
20721;SDS011;10522;52.198;9.890;2022-08-19T05:29:07;12.47;;;7.20;;
20721;SDS011;10522;52.198;9.890;2022-08-19T05:31:33;13.47;;;8.50;;
20721;SDS011;10522;52.198;9.890;2022-08-19T05:34:00;12.40;;;7.90;;
20721;SDS011;10522;52.198;9.890;2022-08-19T05:36:26;15.40;;;8.40;;
20721;SDS011;10522;52.198;9.890;2022-08-19T05:38:53;15.23;;;7.57;;
20721;SDS011;10522;52.198;9.890;2022-08-19T05:41:20;11.10;;;7.30;;
20721;SDS011;10522;52.198;9.890;2022-08-19T05:43:54;10.43;;;7.87;;
20721;SDS011;10522;52.198;9.890;2022-08-19T05:46:23;10.03;;;7.07;;
20721;SDS011;10522;52.198;9.890;2022-08-19T05:48:49;10.77;;;7.03;;
20721;SDS011;10522;52.198;9.890;2022-08-19T05:51:15;14.53;;;8.00;;
20721;SDS011;10522;52.198;9.890;2022-08-19T05:53:41;12.80;;;7.33;;
20721;SDS011;10522;52.198;9.890;2022-08-19T05:56:08;12.73;;;7.67;;
20721;SDS011;10522;52.198;9.890;2022-08-19T05:58:36;12.67;;;7.53;;
20721;SDS011;10522;52.198;9.890;2022-08-19T06:01:03;10.60;;;7.27;;
20721;SDS011;10522;52.198;9.890;2022-08-19T06:03:31;13.03;;;7.70;;
20721;SDS011;10522;52.198;9.890;2022-08-19T06:05:58;13.87;;;9.20;;
20721;SDS011;10522;52.198;9.890;2022-08-19T06:08:24;9.23;;;7.13;;
20721;SDS011;10522;52.198;9.890;2022-08-19T06:10:51;17.43;;;8.23;;
20721;SDS011;10522;52.198;9.890;2022-08-19T06:13:17;11.43;;;7.43;;
20721;SDS011;10522;52.198;9.890;2022-08-19T06:15:44;11.40;;;6.87;;
20721;SDS011;10522;52.198;9.890;2022-08-19T06:18:11;13.23;;;8.00;;
20721;SDS011;10522;52.198;9.890;2022-08-19T06:20:37;13.77;;;8.00;;
20721;SDS011;10522;52.198;9.890;2022-08-19T06:23:02;13.93;;;8.47;;
20721;SDS011;10522;52.198;9.890;2022-08-19T06:25:28;14.27;;;8.47;;
20721;SDS011;10522;52.198;9.890;2022-08-19T06:27:54;20.03;;;8.77;;
20721;SDS011;10522;52.198;9.890;2022-08-19T06:30:19;17.13;;;9.73;;
20721;SDS011;10522;52.198;9.890;2022-08-19T06:32:45;17.10;;;9.17;;
20721;SDS011;10522;52.198;9.890;2022-08-19T06:35:10;17.77;;;9.53;;
20721;SDS011;10522;52.198;9.890;2022-08-19T06:37:37;16.13;;;10.03;;
20721;SDS011;10522;52.198;9.890;2022-08-19T06:40:02;16.67;;;10.30;;
20721;SDS011;10522;52.198;9.890;2022-08-19T06:42:28;17.20;;;10.60;;
20721;SDS011;10522;52.198;9.890;2022-08-19T06:44:55;16.07;;;10.47;;
20721;SDS011;10522;52.198;9.890;2022-08-19T06:47:21;16.17;;;10.77;;
20721;SDS011;10522;52.198;9.890;2022-08-19T06:49:46;17.73;;;10.23;;
20721;SDS011;10522;52.198;9.890;2022-08-19T06:52:12;20.73;;;11.77;;
20721;SDS011;10522;52.198;9.890;2022-08-19T06:54:39;21.47;;;11.43;;
20721;SDS011;10522;52.198;9.890;2022-08-19T06:57:07;20.13;;;11.93;;
20721;SDS011;10522;52.198;9.890;2022-08-19T06:59:38;23.43;;;12.90;;
20721;SDS011;10522;52.198;9.890;2022-08-19T07:02:04;23.03;;;11.77;;
20721;SDS011;10522;52.198;9.890;2022-08-19T07:04:31;18.80;;;11.53;;
20721;SDS011;10522;52.198;9.890;2022-08-19T07:06:59;20.60;;;12.97;;
20721;SDS011;10522;52.198;9.890;2022-08-19T07:09:27;20.27;;;11.90;;
20721;SDS011;10522;52.198;9.890;2022-08-19T07:11:53;26.97;;;12.53;;
20721;SDS011;10522;52.198;9.890;2022-08-19T07:14:20;35.80;;;14.80;;
20721;SDS011;10522;52.198;9.890;2022-08-19T07:16:50;21.80;;;12.40;;
20721;SDS011;10522;52.198;9.890;2022-08-19T07:19:18;23.57;;;12.63;;
20721;SDS011;10522;52.198;9.890;2022-08-19T07:21:44;21.90;;;12.50;;
20721;SDS011;10522;52.198;9.890;2022-08-19T07:24:11;21.37;;;13.20;;
20721;SDS011;10522;52.198;9.890;2022-08-19T07:26:38;20.93;;;13.47;;
20721;SDS011;10522;52.198;9.890;2022-08-19T07:29:07;20.87;;;11.93;;
20721;SDS011;10522;52.198;9.890;2022-08-19T07:31:33;21.93;;;12.20;;
20721;SDS011;10522;52.198;9.890;2022-08-19T07:34:02;23.07;;;12.67;;
20721;SDS011;10522;52.198;9.890;2022-08-19T07:36:33;20.23;;;12.10;;
20721;SDS011;10522;52.198;9.890;2022-08-19T07:39:03;23.33;;;11.80;;
20721;SDS011;10522;52.198;9.890;2022-08-19T07:41:32;19.37;;;11.93;;
20721;SDS011;10522;52.198;9.890;2022-08-19T07:43:59;21.53;;;11.47;;
20721;SDS011;10522;52.198;9.890;2022-08-19T07:46:29;21.40;;;12.43;;
20721;SDS011;10522;52.198;9.890;2022-08-19T07:48:59;21.07;;;11.50;;
20721;SDS011;10522;52.198;9.890;2022-08-19T07:51:25;22.03;;;12.60;;
20721;SDS011;10522;52.198;9.890;2022-08-19T07:53:51;20.87;;;12.27;;
20721;SDS011;10522;52.198;9.890;2022-08-19T07:56:18;21.07;;;11.47;;
20721;SDS011;10522;52.198;9.890;2022-08-19T07:58:45;19.60;;;12.03;;
20721;SDS011;10522;52.198;9.890;2022-08-19T08:01:13;19.07;;;11.17;;
20721;SDS011;10522;52.198;9.890;2022-08-19T08:03:40;17.77;;;10.87;;
20721;SDS011;10522;52.198;9.890;2022-08-19T08:06:25;19.47;;;11.50;;
20721;SDS011;10522;52.198;9.890;2022-08-19T08:09:09;19.33;;;11.97;;
20721;SDS011;10522;52.198;9.890;2022-08-19T08:11:36;22.23;;;11.63;;
20721;SDS011;10522;52.198;9.890;2022-08-19T08:14:02;18.13;;;10.53;;
20721;SDS011;10522;52.198;9.890;2022-08-19T08:16:29;15.87;;;9.27;;
20721;SDS011;10522;52.198;9.890;2022-08-19T08:19:00;15.20;;;10.47;;
20721;SDS011;10522;52.198;9.890;2022-08-19T08:21:26;18.60;;;10.40;;
20721;SDS011;10522;52.198;9.890;2022-08-19T08:23:51;19.03;;;10.97;;
20721;SDS011;10522;52.198;9.890;2022-08-19T08:26:20;17.03;;;9.93;;
20721;SDS011;10522;52.198;9.890;2022-08-19T08:28:45;21.53;;;10.40;;
20721;SDS011;10522;52.198;9.890;2022-08-19T08:31:12;15.30;;;9.40;;
20721;SDS011;10522;52.198;9.890;2022-08-19T08:33:37;17.90;;;9.53;;
20721;SDS011;10522;52.198;9.890;2022-08-19T08:36:06;15.07;;;10.40;;
20721;SDS011;10522;52.198;9.890;2022-08-19T08:38:33;15.17;;;9.03;;
20721;SDS011;10522;52.198;9.890;2022-08-19T08:41:05;16.30;;;10.00;;
20721;SDS011;10522;52.198;9.890;2022-08-19T08:43:44;20.47;;;10.80;;
20721;SDS011;10522;52.198;9.890;2022-08-19T08:46:13;13.93;;;8.60;;
20721;SDS011;10522;52.198;9.890;2022-08-19T08:51:20;14.77;;;9.27;;
20721;SDS011;10522;52.198;9.890;2022-08-19T08:54:07;11.47;;;8.17;;
20721;SDS011;10522;52.198;9.890;2022-08-19T08:56:40;10.97;;;7.73;;
20721;SDS011;10522;52.198;9.890;2022-08-19T08:59:10;12.83;;;7.63;;
20721;SDS011;10522;52.198;9.890;2022-08-19T09:01:51;13.13;;;8.23;;
20721;SDS011;10522;52.198;9.890;2022-08-19T09:04:16;11.90;;;7.80;;
20721;SDS011;10522;52.198;9.890;2022-08-19T09:06:47;13.37;;;8.17;;
20721;SDS011;10522;52.198;9.890;2022-08-19T09:09:30;10.27;;;6.87;;
20721;SDS011;10522;52.198;9.890;2022-08-19T09:12:05;13.93;;;7.67;;
20721;SDS011;10522;52.198;9.890;2022-08-19T09:14:50;12.27;;;7.13;;
20721;SDS011;10522;52.198;9.890;2022-08-19T09:17:20;13.80;;;7.20;;
20721;SDS011;10522;52.198;9.890;2022-08-19T09:22:25;12.03;;;6.67;;
20721;SDS011;10522;52.198;9.890;2022-08-19T09:24:52;12.10;;;6.77;;
20721;SDS011;10522;52.198;9.890;2022-08-19T09:27:21;10.03;;;5.90;;
20721;SDS011;10522;52.198;9.890;2022-08-19T09:29:49;9.13;;;6.47;;
20721;SDS011;10522;52.198;9.890;2022-08-19T09:32:15;16.50;;;7.37;;
20721;SDS011;10522;52.198;9.890;2022-08-19T09:34:42;8.20;;;6.23;;
20721;SDS011;10522;52.198;9.890;2022-08-19T09:37:08;7.33;;;6.20;;
20721;SDS011;10522;52.198;9.890;2022-08-19T09:39:33;7.93;;;5.57;;
20721;SDS011;10522;52.198;9.890;2022-08-19T09:41:59;11.23;;;6.03;;
20721;SDS011;10522;52.198;9.890;2022-08-19T09:44:24;10.90;;;6.70;;
20721;SDS011;10522;52.198;9.890;2022-08-19T09:46:50;10.40;;;5.80;;
20721;SDS011;10522;52.198;9.890;2022-08-19T09:49:16;8.40;;;5.30;;
20721;SDS011;10522;52.198;9.890;2022-08-19T09:51:43;6.77;;;4.57;;
20721;SDS011;10522;52.198;9.890;2022-08-19T09:54:08;7.50;;;5.40;;
20721;SDS011;10522;52.198;9.890;2022-08-19T09:56:34;8.10;;;6.10;;
20721;SDS011;10522;52.198;9.890;2022-08-19T09:59:00;6.87;;;5.17;;
20721;SDS011;10522;52.198;9.890;2022-08-19T10:01:27;8.60;;;5.10;;
20721;SDS011;10522;52.198;9.890;2022-08-19T10:03:55;8.80;;;5.90;;
20721;SDS011;10522;52.198;9.890;2022-08-19T10:06:23;8.70;;;5.20;;
20721;SDS011;10522;52.198;9.890;2022-08-19T10:08:58;6.70;;;4.73;;
20721;SDS011;10522;52.198;9.890;2022-08-19T10:11:33;8.27;;;4.53;;
20721;SDS011;10522;52.198;9.890;2022-08-19T10:14:04;5.70;;;4.80;;
20721;SDS011;10522;52.198;9.890;2022-08-19T10:16:31;7.60;;;5.30;;
20721;SDS011;10522;52.198;9.890;2022-08-19T10:18:57;8.43;;;5.40;;
20721;SDS011;10522;52.198;9.890;2022-08-19T10:21:25;10.43;;;5.53;;
20721;SDS011;10522;52.198;9.890;2022-08-19T10:23:54;7.97;;;4.70;;
20721;SDS011;10522;52.198;9.890;2022-08-19T10:26:24;7.70;;;5.00;;
20721;SDS011;10522;52.198;9.890;2022-08-19T10:28:52;5.70;;;4.27;;
20721;SDS011;10522;52.198;9.890;2022-08-19T10:31:21;4.10;;;3.10;;
20721;SDS011;10522;52.198;9.890;2022-08-19T10:33:57;5.10;;;3.50;;
20721;SDS011;10522;52.198;9.890;2022-08-19T10:36:32;6.57;;;3.40;;
20721;SDS011;10522;52.198;9.890;2022-08-19T10:39:00;5.33;;;3.57;;
20721;SDS011;10522;52.198;9.890;2022-08-19T10:43:59;4.53;;;2.90;;
20721;SDS011;10522;52.198;9.890;2022-08-19T10:46:31;5.87;;;3.23;;
20721;SDS011;10522;52.198;9.890;2022-08-19T10:48:58;6.47;;;2.10;;
20721;SDS011;10522;52.198;9.890;2022-08-19T10:51:25;3.17;;;2.30;;
20721;SDS011;10522;52.198;9.890;2022-08-19T10:54:09;5.53;;;2.40;;
20721;SDS011;10522;52.198;9.890;2022-08-19T10:56:35;5.23;;;2.43;;
20721;SDS011;10522;52.198;9.890;2022-08-19T10:59:16;2.40;;;1.90;;
20721;SDS011;10522;52.198;9.890;2022-08-19T11:01:58;3.47;;;2.33;;
20721;SDS011;10522;52.198;9.890;2022-08-19T11:04:25;3.90;;;2.03;;
20721;SDS011;10522;52.198;9.890;2022-08-19T11:06:51;4.07;;;2.07;;
20721;SDS011;10522;52.198;9.890;2022-08-19T11:09:18;3.30;;;2.33;;
20721;SDS011;10522;52.198;9.890;2022-08-19T11:11:47;4.17;;;2.10;;
20721;SDS011;10522;52.198;9.890;2022-08-19T11:14:14;3.50;;;2.50;;
20721;SDS011;10522;52.198;9.890;2022-08-19T11:16:41;2.63;;;1.60;;
20721;SDS011;10522;52.198;9.890;2022-08-19T11:19:08;3.07;;;2.03;;
20721;SDS011;10522;52.198;9.890;2022-08-19T11:21:35;3.07;;;1.70;;
20721;SDS011;10522;52.198;9.890;2022-08-19T11:24:04;1.57;;;1.47;;
20721;SDS011;10522;52.198;9.890;2022-08-19T11:26:32;2.37;;;1.83;;
20721;SDS011;10522;52.198;9.890;2022-08-19T11:28:59;1.73;;;1.57;;
20721;SDS011;10522;52.198;9.890;2022-08-19T11:31:26;2.33;;;1.77;;
20721;SDS011;10522;52.198;9.890;2022-08-19T11:33:59;3.90;;;1.67;;
20721;SDS011;10522;52.198;9.890;2022-08-19T11:36:28;2.43;;;1.70;;
20721;SDS011;10522;52.198;9.890;2022-08-19T11:38:53;2.40;;;1.83;;
20721;SDS011;10522;52.198;9.890;2022-08-19T11:41:20;2.80;;;1.57;;
20721;SDS011;10522;52.198;9.890;2022-08-19T11:43:48;2.23;;;1.43;;
20721;SDS011;10522;52.198;9.890;2022-08-19T11:46:14;3.33;;;1.70;;
20721;SDS011;10522;52.198;9.890;2022-08-19T11:48:41;5.73;;;1.80;;
20721;SDS011;10522;52.198;9.890;2022-08-19T11:51:08;1.87;;;1.77;;
20721;SDS011;10522;52.198;9.890;2022-08-19T11:53:39;4.97;;;2.00;;
20721;SDS011;10522;52.198;9.890;2022-08-19T11:56:05;1.80;;;1.70;;
20721;SDS011;10522;52.198;9.890;2022-08-19T11:58:33;2.17;;;1.90;;
20721;SDS011;10522;52.198;9.890;2022-08-19T12:00:59;5.37;;;1.90;;
20721;SDS011;10522;52.198;9.890;2022-08-19T12:03:25;4.63;;;1.50;;
20721;SDS011;10522;52.198;9.890;2022-08-19T12:05:51;2.60;;;1.73;;
20721;SDS011;10522;52.198;9.890;2022-08-19T12:08:17;3.73;;;1.87;;
20721;SDS011;10522;52.198;9.890;2022-08-19T12:10:43;8.03;;;2.00;;
20721;SDS011;10522;52.198;9.890;2022-08-19T12:13:10;1.90;;;1.70;;
20721;SDS011;10522;52.198;9.890;2022-08-19T12:15:43;2.53;;;1.80;;
20721;SDS011;10522;52.198;9.890;2022-08-19T12:18:10;4.30;;;2.07;;
20721;SDS011;10522;52.198;9.890;2022-08-19T12:20:39;5.40;;;2.50;;
20721;SDS011;10522;52.198;9.890;2022-08-19T12:23:06;1.90;;;1.80;;
20721;SDS011;10522;52.198;9.890;2022-08-19T12:25:34;2.77;;;2.00;;
20721;SDS011;10522;52.198;9.890;2022-08-19T12:28:00;2.53;;;1.73;;
20721;SDS011;10522;52.198;9.890;2022-08-19T12:30:26;6.33;;;2.07;;
20721;SDS011;10522;52.198;9.890;2022-08-19T12:32:52;3.37;;;2.33;;
20721;SDS011;10522;52.198;9.890;2022-08-19T12:35:18;2.20;;;2.00;;
20721;SDS011;10522;52.198;9.890;2022-08-19T12:37:47;4.27;;;1.90;;
20721;SDS011;10522;52.198;9.890;2022-08-19T12:40:19;2.97;;;1.67;;
20721;SDS011;10522;52.198;9.890;2022-08-19T12:43:17;5.53;;;1.40;;
20721;SDS011;10522;52.198;9.890;2022-08-19T12:45:44;2.53;;;1.73;;
20721;SDS011;10522;52.198;9.890;2022-08-19T12:48:10;2.87;;;1.70;;
20721;SDS011;10522;52.198;9.890;2022-08-19T12:50:39;2.43;;;1.70;;
20721;SDS011;10522;52.198;9.890;2022-08-19T12:53:05;4.63;;;1.97;;
20721;SDS011;10522;52.198;9.890;2022-08-19T12:55:31;2.20;;;2.00;;
20721;SDS011;10522;52.198;9.890;2022-08-19T12:57:56;3.10;;;1.90;;
20721;SDS011;10522;52.198;9.890;2022-08-19T13:00:25;2.33;;;1.50;;
20721;SDS011;10522;52.198;9.890;2022-08-19T13:02:51;1.90;;;1.40;;
20721;SDS011;10522;52.198;9.890;2022-08-19T13:05:23;3.53;;;1.40;;
20721;SDS011;10522;52.198;9.890;2022-08-19T13:07:51;3.13;;;1.70;;
20721;SDS011;10522;52.198;9.890;2022-08-19T13:10:21;4.50;;;2.57;;
20721;SDS011;10522;52.198;9.890;2022-08-19T13:12:48;2.33;;;2.13;;
20721;SDS011;10522;52.198;9.890;2022-08-19T13:15:16;2.77;;;1.90;;
20721;SDS011;10522;52.198;9.890;2022-08-19T13:17:45;4.33;;;2.40;;
20721;SDS011;10522;52.198;9.890;2022-08-19T13:20:14;2.07;;;1.73;;
20721;SDS011;10522;52.198;9.890;2022-08-19T13:22:41;2.90;;;1.50;;
20721;SDS011;10522;52.198;9.890;2022-08-19T13:25:11;2.30;;;2.10;;
20721;SDS011;10522;52.198;9.890;2022-08-19T13:27:38;4.63;;;2.43;;
20721;SDS011;10522;52.198;9.890;2022-08-19T13:30:05;1.93;;;1.70;;
20721;SDS011;10522;52.198;9.890;2022-08-19T13:32:57;2.97;;;1.70;;
20721;SDS011;10522;52.198;9.890;2022-08-19T13:35:42;4.57;;;2.10;;
20721;SDS011;10522;52.198;9.890;2022-08-19T13:38:11;2.53;;;1.30;;
20721;SDS011;10522;52.198;9.890;2022-08-19T13:40:39;2.60;;;1.60;;
20721;SDS011;10522;52.198;9.890;2022-08-19T13:43:06;4.43;;;1.50;;
20721;SDS011;10522;52.198;9.890;2022-08-19T13:45:33;1.50;;;1.40;;
20721;SDS011;10522;52.198;9.890;2022-08-19T13:47:59;1.30;;;1.20;;
20721;SDS011;10522;52.198;9.890;2022-08-19T13:50:29;2.43;;;1.80;;
20721;SDS011;10522;52.198;9.890;2022-08-19T13:52:59;1.70;;;1.60;;
20721;SDS011;10522;52.198;9.890;2022-08-19T13:55:25;1.87;;;1.40;;
20721;SDS011;10522;52.198;9.890;2022-08-19T13:57:52;4.33;;;1.60;;
20721;SDS011;10522;52.198;9.890;2022-08-19T14:00:22;2.80;;;1.80;;
20721;SDS011;10522;52.198;9.890;2022-08-19T14:02:51;3.00;;;1.90;;
20721;SDS011;10522;52.198;9.890;2022-08-19T14:05:19;5.03;;;3.20;;
20721;SDS011;10522;52.198;9.890;2022-08-19T14:07:44;4.10;;;2.10;;
20721;SDS011;10522;52.198;9.890;2022-08-19T14:10:11;2.93;;;2.03;;
20721;SDS011;10522;52.198;9.890;2022-08-19T14:12:37;2.13;;;1.73;;
20721;SDS011;10522;52.198;9.890;2022-08-19T14:15:04;1.60;;;1.50;;
20721;SDS011;10522;52.198;9.890;2022-08-19T14:17:31;2.77;;;2.17;;
20721;SDS011;10522;52.198;9.890;2022-08-19T14:20:04;1.40;;;1.30;;
20721;SDS011;10522;52.198;9.890;2022-08-19T14:22:34;2.20;;;1.90;;
20721;SDS011;10522;52.198;9.890;2022-08-19T14:25:05;2.17;;;1.97;;
20721;SDS011;10522;52.198;9.890;2022-08-19T14:27:33;2.30;;;1.93;;
20721;SDS011;10522;52.198;9.890;2022-08-19T14:29:59;1.90;;;1.80;;
20721;SDS011;10522;52.198;9.890;2022-08-19T14:32:24;1.50;;;1.30;;
20721;SDS011;10522;52.198;9.890;2022-08-19T14:34:55;4.00;;;1.47;;
20721;SDS011;10522;52.198;9.890;2022-08-19T14:37:25;2.50;;;1.93;;
20721;SDS011;10522;52.198;9.890;2022-08-19T14:39:57;1.93;;;1.60;;
20721;SDS011;10522;52.198;9.890;2022-08-19T14:42:29;1.90;;;1.70;;
20721;SDS011;10522;52.198;9.890;2022-08-19T14:44:58;2.37;;;2.17;;
20721;SDS011;10522;52.198;9.890;2022-08-19T14:47:24;3.37;;;2.10;;
20721;SDS011;10522;52.198;9.890;2022-08-19T14:49:52;3.57;;;2.57;;
20721;SDS011;10522;52.198;9.890;2022-08-19T14:52:24;5.23;;;2.83;;
20721;SDS011;10522;52.198;9.890;2022-08-19T14:54:54;1.93;;;1.43;;
20721;SDS011;10522;52.198;9.890;2022-08-19T14:57:30;4.03;;;1.87;;